Time;durP1;ratioP1;P1;durP2;ratioP2;P2;SDS_P1;SDS_P2;PMS_P1;PMS_P2;Temp;Humidity;BMP_temperature;BMP_pressure;BME280_temperature;BME280_humidity;BME280_pressure;Samples;Min_cycle;Max_cycle;Signal;HPM_P1;HPM_P2
2022/10/03 00:01:47;;;;;;;19.87;3.33;;;10.50;99.90;;;;;;5008498;28;20551;-46
2022/10/03 00:04:38;;;;;;;10.90;3.27;;;10.50;99.90;;;;;;5011506;28;20945;-47
2022/10/03 00:07:18;;;;;;;13.23;3.90;;;10.50;99.90;;;;;;5010131;28;20459;-46
2022/10/03 00:09:59;;;;;;;19.30;4.00;;;10.50;99.90;;;;;;5010707;28;20582;-48
2022/10/03 00:12:46;;;;;;;13.53;2.93;;;10.50;99.90;;;;;;5012376;28;20876;-46
2022/10/03 00:15:20;;;;;;;20.73;3.33;;;10.50;99.90;;;;;;5010986;28;20463;-47
2022/10/03 00:17:57;;;;;;;19.87;4.10;;;10.50;99.90;;;;;;5011826;28;20491;-46
2022/10/03 00:20:49;;;;;;;8.77;2.73;;;10.50;99.90;;;;;;5013374;28;20549;-47
2022/10/03 00:23:22;;;;;;;22.47;3.70;;;10.60;99.90;;;;;;5013088;28;20483;-49
2022/10/03 00:25:57;;;;;;;12.83;3.57;;;10.60;99.90;;;;;;5012925;28;20514;-49
2022/10/03 00:28:48;;;;;;;15.10;3.20;;;10.60;99.90;;;;;;5011137;28;20557;-49
2022/10/03 00:31:20;;;;;;;24.63;3.80;;;10.50;99.90;;;;;;5011484;28;21016;-49
2022/10/03 00:34:01;;;;;;;13.10;2.80;;;10.50;99.90;;;;;;5006588;28;20957;-49
2022/10/03 00:36:39;;;;;;;13.33;3.40;;;10.50;99.90;;;;;;5005612;28;20471;-49
2022/10/03 00:39:22;;;;;;;14.83;2.70;;;10.50;99.90;;;;;;5012986;28;20915;-49
2022/10/03 00:42:25;;;;;;;13.30;3.00;;;10.40;99.90;;;;;;4993569;28;20989;-50
2022/10/03 00:45:40;;;;;;;14.90;3.30;;;10.40;99.90;;;;;;5010463;28;20533;-50
2022/10/03 00:48:40;;;;;;;14.83;2.67;;;10.40;99.90;;;;;;5004393;28;20484;-50
2022/10/03 00:51:24;;;;;;;14.63;3.23;;;10.40;99.90;;;;;;5010538;28;20572;-49
2022/10/03 00:54:06;;;;;;;15.10;3.23;;;10.40;99.90;;;;;;5013168;28;20523;-49
2022/10/03 00:56:48;;;;;;;11.67;3.23;;;10.40;99.90;;;;;;5013095;28;20538;-49
2022/10/03 00:59:30;;;;;;;11.40;3.30;;;10.40;99.90;;;;;;5011835;28;20890;-50
2022/10/03 01:01:57;;;;;;;15.20;3.03;;;10.30;99.90;;;;;;5012931;28;20531;-49
2022/10/03 01:04:42;;;;;;;8.77;2.87;;;10.40;99.90;;;;;;5012875;28;20582;-49
2022/10/03 01:07:25;;;;;;;16.33;2.63;;;10.30;99.90;;;;;;5012428;28;20550;-50
2022/10/03 01:10:04;;;;;;;13.10;3.00;;;10.40;99.90;;;;;;5012830;28;20542;-50
2022/10/03 01:12:48;;;;;;;11.47;3.17;;;10.40;99.90;;;;;;5011032;28;20872;-49
2022/10/03 01:15:27;;;;;;;19.43;2.97;;;10.40;99.90;;;;;;5012539;28;20531;-50
2022/10/03 01:18:09;;;;;;;13.10;2.97;;;10.50;99.90;;;;;;5009309;28;20526;-50
2022/10/03 01:20:45;;;;;;;12.30;2.80;;;10.50;99.90;;;;;;5010485;28;20459;-50
2022/10/03 01:23:35;;;;;;;13.10;2.90;;;10.50;99.90;;;;;;5009445;28;20962;-49
2022/10/03 01:26:14;;;;;;;9.87;2.80;;;10.50;99.90;;;;;;5009561;28;21024;-49
2022/10/03 01:31:38;;;;;;;13.90;3.07;;;10.60;99.90;;;;;;4996066;28;20476;-49
2022/10/03 01:34:11;;;;;;;17.63;3.30;;;10.60;99.90;;;;;;4992828;28;20993;-49
2022/10/03 01:36:42;;;;;;;14.30;2.50;;;10.60;99.90;;;;;;5008477;28;20538;-50
2022/10/03 01:39:18;;;;;;;10.80;3.10;;;10.60;99.90;;;;;;5005271;28;20508;-49
2022/10/03 01:41:51;;;;;;;19.50;3.57;;;10.60;99.90;;;;;;4996471;28;20546;-50
2022/10/03 01:44:24;;;;;;;12.77;3.07;;;10.60;99.90;;;;;;5010343;28;20523;-50
2022/10/03 01:46:55;;;;;;;14.70;2.93;;;10.70;99.90;;;;;;5010565;28;20547;-50
2022/10/03 01:49:27;;;;;;;11.63;2.93;;;10.70;99.90;;;;;;5011182;28;20523;-50
2022/10/03 01:52:00;;;;;;;13.60;3.50;;;10.80;99.90;;;;;;5010812;28;20499;-50
2022/10/03 01:54:36;;;;;;;15.30;2.97;;;10.70;99.90;;;;;;5011596;28;20563;-49
2022/10/03 01:57:13;;;;;;;10.97;2.90;;;10.80;99.90;;;;;;5008466;28;20550;-49
2022/10/03 01:59:47;;;;;;;14.60;3.33;;;10.80;99.90;;;;;;5003428;28;20593;-49
2022/10/03 02:02:22;;;;;;;14.17;2.83;;;10.80;99.90;;;;;;5008491;28;20459;-49
2022/10/03 02:04:57;;;;;;;12.60;2.77;;;10.80;99.90;;;;;;5014120;28;20896;-50
2022/10/03 02:07:29;;;;;;;19.10;3.20;;;10.80;99.90;;;;;;5006919;28;20549;-50
2022/10/03 02:10:06;;;;;;;14.00;3.23;;;10.80;99.90;;;;;;5011855;28;20546;-50
2022/10/03 02:12:39;;;;;;;15.77;3.53;;;10.90;99.90;;;;;;5010889;28;20825;-49
2022/10/03 02:15:15;;;;;;;10.43;3.13;;;10.90;99.90;;;;;;5010796;28;20550;-50
2022/10/03 02:17:55;;;;;;;21.67;4.40;;;10.90;99.90;;;;;;5011939;28;20451;-50
2022/10/03 02:20:27;;;;;;;14.73;3.00;;;10.90;99.90;;;;;;5011853;28;20961;-50
2022/10/03 02:22:56;;;;;;;13.80;2.80;;;10.90;99.90;;;;;;5011701;28;20535;-50
2022/10/03 02:25:30;;;;;;;12.73;2.53;;;10.90;99.90;;;;;;5009468;28;20472;-49
2022/10/03 02:28:24;;;;;;;16.93;2.67;;;10.90;99.90;;;;;;5007060;28;20490;-49
2022/10/03 02:31:23;;;;;;;13.03;2.80;;;10.90;99.90;;;;;;5004744;28;20459;-49
2022/10/03 02:34:18;;;;;;;21.73;2.97;;;10.90;99.90;;;;;;5001066;28;20861;-49
2022/10/03 02:37:10;;;;;;;16.33;2.73;;;11.00;99.90;;;;;;5010510;28;21033;-49
2022/10/03 02:40:09;;;;;;;16.93;3.30;;;11.00;99.90;;;;;;5012323;28;20566;-49
2022/10/03 02:42:57;;;;;;;17.70;3.40;;;11.00;99.90;;;;;;5007385;28;20455;-49
2022/10/03 02:45:52;;;;;;;7.53;2.17;;;11.00;99.90;;;;;;5014069;28;20590;-50
2022/10/03 02:48:46;;;;;;;8.97;2.27;;;11.00;99.90;;;;;;5006785;28;20510;-50
2022/10/03 02:51:45;;;;;;;13.60;2.90;;;11.10;99.90;;;;;;5004760;28;21027;-50
2022/10/03 02:55:02;;;;;;;22.80;3.13;;;11.10;99.90;;;;;;5005639;28;20570;-50
2022/10/03 02:58:00;;;;;;;15.13;3.00;;;11.10;99.90;;;;;;4988162;28;20519;-49
2022/10/03 03:00:35;;;;;;;13.80;2.53;;;11.10;99.90;;;;;;5012980;28;20490;-49
2022/10/03 03:03:35;;;;;;;14.70;3.13;;;11.10;99.90;;;;;;5013052;28;20554;-50
2022/10/03 03:06:32;;;;;;;10.10;2.97;;;11.10;99.90;;;;;;4995820;28;20561;-50
2022/10/03 03:09:28;;;;;;;13.33;3.10;;;11.10;99.90;;;;;;5011506;28;20495;-50
2022/10/03 03:12:26;;;;;;;8.70;2.87;;;11.10;99.90;;;;;;5011610;28;20463;-50
2022/10/03 03:15:40;;;;;;;14.00;2.53;;;11.10;99.90;;;;;;5009808;28;20473;-50
2022/10/03 03:18:15;;;;;;;7.67;2.20;;;11.10;99.90;;;;;;5013428;28;20487;-50
2022/10/03 03:21:16;;;;;;;10.60;2.93;;;11.10;99.90;;;;;;5012665;28;20557;-50
2022/10/03 03:24:09;;;;;;;13.70;2.87;;;11.10;99.90;;;;;;4965585;28;20509;-49
2022/10/03 03:26:57;;;;;;;8.20;2.40;;;11.10;99.90;;;;;;5011118;28;20554;-50
2022/10/03 03:29:35;;;;;;;18.47;2.70;;;11.10;99.90;;;;;;5013446;28;20481;-49
2022/10/03 03:32:10;;;;;;;20.93;3.13;;;11.10;99.90;;;;;;5012629;28;20549;-49
2022/10/03 03:34:48;;;;;;;11.37;2.40;;;11.10;99.90;;;;;;5013661;28;20455;-50
2022/10/03 03:37:25;;;;;;;9.83;1.90;;;11.10;99.90;;;;;;5013051;28;20467;-49
2022/10/03 03:40:05;;;;;;;11.97;2.43;;;11.10;99.90;;;;;;5009219;28;20503;-49
2022/10/03 03:42:47;;;;;;;6.97;2.23;;;11.10;99.90;;;;;;5013243;28;20478;-50
2022/10/03 03:45:33;;;;;;;19.20;4.00;;;11.20;99.90;;;;;;5013099;28;20629;-50
2022/10/03 03:48:38;;;;;;;10.70;3.50;;;11.10;99.90;;;;;;5011390;28;20514;-50
2022/10/03 03:51:18;;;;;;;9.70;3.20;;;11.10;99.90;;;;;;5011310;28;20957;-49
2022/10/03 03:54:18;;;;;;;13.53;3.33;;;11.10;99.90;;;;;;5012074;28;20531;-49
2022/10/03 03:57:00;;;;;;;9.37;3.10;;;11.10;99.90;;;;;;5007681;28;21017;-50
2022/10/03 03:59:39;;;;;;;13.97;3.13;;;11.10;99.90;;;;;;5005667;28;21021;-49
2022/10/03 04:02:17;;;;;;;7.93;2.93;;;11.10;99.90;;;;;;5009267;28;20507;-50
2022/10/03 04:05:00;;;;;;;14.23;3.27;;;11.10;99.90;;;;;;5005574;28;20510;-49
2022/10/03 04:07:43;;;;;;;9.23;3.13;;;11.10;99.90;;;;;;5006516;28;20542;-50
2022/10/03 04:10:26;;;;;;;11.83;2.83;;;11.10;99.90;;;;;;5010297;28;20547;-50
2022/10/03 04:13:08;;;;;;;10.03;2.70;;;11.10;99.90;;;;;;5009560;28;20534;-49
2022/10/03 04:15:46;;;;;;;10.23;2.23;;;11.20;99.90;;;;;;4998563;28;20464;-50
2022/10/03 04:21:34;;;;;;;8.53;2.30;;;11.10;99.90;;;;;;5012810;28;20501;-49
2022/10/03 04:24:20;;;;;;;10.50;2.47;;;11.10;99.90;;;;;;5011496;28;20582;-49
2022/10/03 04:27:14;;;;;;;8.30;2.00;;;11.10;99.90;;;;;;5011110;28;20483;-50
2022/10/03 04:29:48;;;;;;;13.80;3.80;;;11.10;99.90;;;;;;5011677;28;20937;-49
2022/10/03 04:32:33;;;;;;;8.47;2.10;;;11.10;99.90;;;;;;5013321;28;20534;-49
2022/10/03 04:35:31;;;;;;;14.57;3.03;;;11.10;99.90;;;;;;5004511;28;20984;-49
2022/10/03 04:38:10;;;;;;;13.20;2.70;;;11.10;99.90;;;;;;5011882;28;20570;-50
2022/10/03 04:40:44;;;;;;;14.10;2.87;;;11.10;99.90;;;;;;5009729;28;20462;-50
2022/10/03 04:43:18;;;;;;;16.57;3.70;;;11.10;99.90;;;;;;5012654;28;20551;-49
2022/10/03 04:46:01;;;;;;;14.17;2.90;;;11.10;99.90;;;;;;5011835;28;20573;-49
2022/10/03 04:48:36;;;;;;;12.90;3.23;;;11.10;99.90;;;;;;5012343;28;20507;-50
2022/10/03 04:51:12;;;;;;;10.20;4.40;;;11.10;99.90;;;;;;5009811;28;20459;-49
2022/10/03 04:53:47;;;;;;;6.37;1.50;;;11.10;99.90;;;;;;5011604;28;20869;-49
2022/10/03 04:56:29;;;;;;;12.03;2.63;;;11.10;99.90;;;;;;5009302;28;20547;-49
2022/10/03 04:59:08;;;;;;;14.10;2.60;;;11.10;99.90;;;;;;5011890;28;20578;-49
2022/10/03 05:01:43;;;;;;;12.50;2.63;;;11.10;99.90;;;;;;5011163;28;20550;-50
2022/10/03 05:04:25;;;;;;;11.90;2.03;;;11.10;99.90;;;;;;5007946;28;20483;-50
2022/10/03 05:07:05;;;;;;;18.40;2.90;;;11.10;99.90;;;;;;5013099;28;20442;-49
2022/10/03 05:09:42;;;;;;;12.13;2.53;;;11.10;99.90;;;;;;5010591;28;20491;-50
2022/10/03 05:12:17;;;;;;;6.13;2.47;;;11.10;99.90;;;;;;5011916;28;20550;-49
2022/10/03 05:15:02;;;;;;;11.27;2.57;;;11.10;99.90;;;;;;5006164;28;20467;-50
2022/10/03 05:17:41;;;;;;;8.23;2.13;;;11.10;99.90;;;;;;5008227;28;20468;-50
2022/10/03 05:20:22;;;;;;;12.93;2.80;;;11.10;99.90;;;;;;4999202;28;20550;-49
2022/10/03 05:22:56;;;;;;;18.67;3.43;;;11.10;99.90;;;;;;5008070;28;20490;-49
2022/10/03 05:25:37;;;;;;;21.20;3.30;;;11.10;99.90;;;;;;5011535;28;20570;-50
2022/10/03 05:28:15;;;;;;;12.80;2.73;;;11.10;99.90;;;;;;5009738;28;20487;-50
2022/10/03 05:30:48;;;;;;;15.10;3.10;;;11.10;99.90;;;;;;5010171;28;20504;-50
2022/10/03 05:33:24;;;;;;;13.63;2.37;;;11.10;99.90;;;;;;5012335;28;20475;-49
2022/10/03 05:36:10;;;;;;;15.27;3.50;;;11.10;99.90;;;;;;5010574;28;20562;-50
2022/10/03 05:39:08;;;;;;;15.87;2.57;;;11.20;99.90;;;;;;5011592;28;20483;-49
2022/10/03 05:41:36;;;;;;;11.03;3.10;;;11.10;99.90;;;;;;4991874;28;20586;-49
2022/10/03 05:44:07;;;;;;;9.37;2.90;;;11.10;99.90;;;;;;5008306;28;20566;-49
2022/10/03 05:46:58;;;;;;;10.83;2.63;;;11.10;99.90;;;;;;5009728;28;20551;-50
2022/10/03 05:49:52;;;;;;;13.63;3.00;;;11.10;99.90;;;;;;4998514;28;20504;-49
2022/10/03 05:52:49;;;;;;;14.23;2.63;;;11.10;99.90;;;;;;5011149;28;20478;-49
2022/10/03 05:55:28;;;;;;;14.43;3.10;;;11.10;99.90;;;;;;5006615;28;20467;-50
2022/10/03 05:58:31;;;;;;;13.23;3.53;;;11.10;99.90;;;;;;5009532;28;20513;-50
2022/10/03 06:01:27;;;;;;;14.10;2.60;;;11.10;99.90;;;;;;5008020;28;20631;-49
2022/10/03 06:04:13;;;;;;;9.23;2.37;;;11.20;99.90;;;;;;5011580;28;20512;-49
2022/10/03 06:06:51;;;;;;;15.53;2.60;;;11.20;92.70;;;;;;5011972;28;20502;-50
2022/10/03 06:09:43;;;;;;;19.73;2.87;;;11.20;99.90;;;;;;5011091;28;20899;-49
2022/10/03 06:12:13;;;;;;;14.93;3.63;;;11.30;83.70;;;;;;5001593;28;20533;-49
2022/10/03 06:15:04;;;;;;;11.87;2.60;;;11.30;76.50;;;;;;5010370;28;20455;-50
2022/10/03 06:18:01;;;;;;;12.20;4.30;;;11.30;20.60;;;;;;5011108;28;20558;-50
2022/10/03 06:21:06;;;;;;;16.33;2.50;;;11.40;22.80;;;;;;4999394;28;20492;-49
2022/10/03 06:24:05;;;;;;;13.60;2.60;;;11.40;24.50;;;;;;5011235;28;20985;-49
2022/10/03 06:26:53;;;;;;;13.20;3.10;;;11.40;33.50;;;;;;5003819;28;20483;-51
2022/10/03 06:30:04;;;;;;;12.73;2.77;;;11.40;31.20;;;;;;5010585;28;21072;-50
2022/10/03 06:33:27;;;;;;;12.60;3.30;;;11.40;33.90;;;;;;5009857;28;20483;-49
2022/10/03 06:36:27;;;;;;;11.00;3.27;;;11.40;39.40;;;;;;5000227;28;20460;-50
2022/10/03 06:39:36;;;;;;;11.13;3.03;;;11.40;41.40;;;;;;5009859;28;20470;-50
2022/10/03 06:42:21;;;;;;;12.20;3.23;;;11.50;42.70;;;;;;5010164;28;20483;-49
2022/10/03 06:45:21;;;;;;;8.27;2.43;;;11.50;42.90;;;;;;5009089;28;20570;-49
2022/10/03 06:48:13;;;;;;;7.43;2.03;;;11.50;41.40;;;;;;4993901;28;20543;-49
2022/10/03 06:50:56;;;;;;;10.10;2.93;;;11.60;41.50;;;;;;5014968;28;21036;-49
2022/10/03 06:53:54;;;;;;;13.20;3.50;;;11.60;43.50;;;;;;5010610;28;20874;-50
2022/10/03 06:57:02;;;;;;;29.97;10.40;;;11.60;43.20;;;;;;4990967;28;20460;-49
2022/10/03 06:59:52;;;;;;;19.63;5.70;;;11.70;41.10;;;;;;5003367;28;20474;-50
2022/10/03 07:02:56;;;;;;;14.57;3.60;;;11.70;53.70;;;;;;5010814;28;20534;-50
2022/10/03 07:05:52;;;;;;;16.93;3.13;;;11.70;54.40;;;;;;5006826;28;20589;-49
2022/10/03 07:08:53;;;;;;;21.53;5.37;;;11.70;56.00;;;;;;5009065;28;20498;-49
2022/10/03 07:11:56;;;;;;;15.57;3.57;;;11.80;54.20;;;;;;5010746;28;20462;-49
2022/10/03 07:14:58;;;;;;;15.10;4.30;;;11.80;57.30;;;;;;5008242;28;20555;-49
2022/10/03 07:17:57;;;;;;;21.03;3.50;;;11.80;64.60;;;;;;5021865;28;20517;-49
2022/10/03 07:20:51;;;;;;;24.77;3.73;;;11.80;67.40;;;;;;5023063;28;20463;-50
2022/10/03 07:23:41;;;;;;;13.37;2.90;;;11.90;71.60;;;;;;5030982;28;20529;-50
2022/10/03 07:26:52;;;;;;;17.37;2.63;;;11.90;71.90;;;;;;5003362;28;20578;-49
2022/10/03 07:29:28;;;;;;;11.03;3.13;;;12.00;72.40;;;;;;5013252;28;20487;-49
2022/10/03 07:32:20;;;;;;;16.20;2.80;;;12.00;73.30;;;;;;5013629;28;20550;-49
2022/10/03 07:38:59;;;;;;;17.53;3.20;;;12.00;76.80;;;;;;4961045;28;20812;-50
2022/10/03 07:41:59;;;;;;;7.77;2.33;;;12.00;77.90;;;;;;5012500;28;20543;-49
2022/10/03 07:44:50;;;;;;;19.93;3.23;;;12.00;81.50;;;;;;5013115;28;20470;-49
2022/10/03 07:47:48;;;;;;;13.83;3.13;;;12.00;84.40;;;;;;5014268;28;20448;-50
2022/10/03 07:50:45;;;;;;;19.67;3.80;;;12.10;80.70;;;;;;5014623;28;20523;-49
2022/10/03 07:53:38;;;;;;;14.87;3.60;;;12.10;87.10;;;;;;5014343;28;20810;-50
2022/10/03 07:56:24;;;;;;;8.30;2.23;;;12.10;92.80;;;;;;5011179;28;20550;-49
2022/10/03 07:59:11;;;;;;;11.97;2.73;;;12.20;91.50;;;;;;5013507;28;20534;-49
2022/10/03 08:02:04;;;;;;;14.03;3.07;;;12.20;94.00;;;;;;5014205;28;20531;-49
2022/10/03 08:04:54;;;;;;;16.43;4.37;;;12.20;99.90;;;;;;5018978;28;20882;-49
2022/10/03 08:07:52;;;;;;;20.40;3.80;;;12.20;99.90;;;;;;5010819;28;20543;-49
2022/10/03 08:10:54;;;;;;;17.87;3.47;;;12.30;99.90;;;;;;4997111;28;20554;-50
2022/10/03 08:13:35;;;;;;;19.83;7.23;;;12.30;99.90;;;;;;5012772;28;20530;-49
2022/10/03 08:16:22;;;;;;;16.80;3.73;;;12.40;99.70;;;;;;5012305;28;20546;-50
2022/10/03 08:19:05;;;;;;;17.00;3.20;;;12.40;99.90;;;;;;5012826;28;20912;-49
2022/10/03 08:21:47;;;;;;;17.37;3.83;;;12.40;99.90;;;;;;5005044;28;20562;-50
2022/10/03 08:24:33;;;;;;;20.90;4.73;;;12.50;99.90;;;;;;5012570;28;20547;-49
2022/10/03 08:27:16;;;;;;;14.73;3.60;;;12.50;99.90;;;;;;5012418;28;20571;-50
2022/10/03 08:30:04;;;;;;;17.27;3.73;;;12.50;99.90;;;;;;5002232;28;20575;-50
2022/10/03 08:32:56;;;;;;;9.17;3.00;;;12.50;99.90;;;;;;5004900;28;21028;-50
2022/10/03 08:35:37;;;;;;;20.83;4.20;;;12.50;99.90;;;;;;5011967;28;20510;-49
2022/10/03 08:38:32;;;;;;;15.07;3.30;;;12.50;99.90;;;;;;4998921;28;20460;-49
2022/10/03 08:41:36;;;;;;;16.80;2.83;;;12.60;99.90;;;;;;4995227;28;20456;-49
2022/10/03 08:44:47;;;;;;;8.30;2.87;;;12.70;99.90;;;;;;5007541;28;20467;-49
2022/10/03 08:47:46;;;;;;;13.17;3.60;;;12.90;99.90;;;;;;4996398;28;20534;-49
2022/10/03 08:50:37;;;;;;;11.77;2.83;;;12.90;99.90;;;;;;5005464;28;20546;-50
2022/10/03 08:53:39;;;;;;;16.13;2.90;;;13.00;99.90;;;;;;5010090;28;20546;-50
2022/10/03 08:56:09;;;;;;;13.50;3.33;;;12.90;99.90;;;;;;5008221;28;20550;-49
2022/10/03 08:59:04;;;;;;;13.03;2.67;;;12.90;99.90;;;;;;5011421;28;20554;-49
2022/10/03 09:01:47;;;;;;;16.60;3.23;;;13.00;99.90;;;;;;5009907;28;20761;-49
2022/10/03 09:05:06;;;;;;;12.93;3.57;;;12.90;99.90;;;;;;5012515;28;20534;-49
2022/10/03 09:08:04;;;;;;;15.80;3.00;;;12.90;99.90;;;;;;5011296;28;20535;-49
2022/10/03 09:10:47;;;;;;;15.33;3.63;;;13.00;99.90;;;;;;4936917;28;20515;-50
2022/10/03 09:13:32;;;;;;;16.10;2.83;;;13.10;99.90;;;;;;5015575;28;20554;-49
2022/10/03 09:16:29;;;;;;;16.33;3.27;;;13.10;99.90;;;;;;4993673;28;21200;-50
2022/10/03 09:19:21;;;;;;;18.23;3.60;;;13.20;99.90;;;;;;5004151;28;21073;-49
2022/10/03 09:22:19;;;;;;;20.87;3.33;;;13.20;99.90;;;;;;5008685;28;20663;-49
2022/10/03 09:25:18;;;;;;;25.77;3.40;;;13.20;99.90;;;;;;5012053;28;20471;-50
2022/10/03 09:28:23;;;;;;;16.93;3.73;;;13.30;99.90;;;;;;5010319;28;20807;-50
2022/10/03 09:31:02;;;;;;;21.70;3.30;;;13.40;99.90;;;;;;5001901;28;20538;-49
2022/10/03 09:34:00;;;;;;;11.83;3.20;;;13.40;99.90;;;;;;5012035;28;20547;-49
2022/10/03 09:37:08;;;;;;;16.30;5.23;;;13.40;99.90;;;;;;5011196;28;20547;-49
2022/10/03 09:40:18;;;;;;;20.43;3.80;;;13.40;99.90;;;;;;4963401;28;20485;-49
2022/10/03 09:43:10;;;;;;;17.23;4.03;;;13.50;99.90;;;;;;5010106;28;20833;-48
2022/10/03 09:46:00;;;;;;;35.27;15.17;;;13.50;99.90;;;;;;5012527;28;20582;-50
2022/10/03 09:48:44;;;;;;;13.13;3.47;;;13.50;99.90;;;;;;5010158;28;20582;-49
2022/10/03 09:51:23;;;;;;;11.00;3.87;;;13.50;99.90;;;;;;5005652;28;20464;-50
2022/10/03 09:54:25;;;;;;;29.43;3.93;;;13.40;99.90;;;;;;5024553;28;21017;-49
2022/10/03 09:57:29;;;;;;;37.17;14.20;;;13.50;99.90;;;;;;5024349;28;20725;-50
2022/10/03 10:00:16;;;;;;;20.63;4.67;;;13.50;99.90;;;;;;5000690;28;20570;-50
2022/10/03 10:03:28;;;;;;;22.27;5.60;;;13.50;99.90;;;;;;5009028;28;20483;-49
2022/10/03 10:06:21;;;;;;;21.93;4.03;;;13.60;99.90;;;;;;5010570;28;20582;-49
2022/10/03 10:09:27;;;;;;;11.70;3.20;;;13.70;99.90;;;;;;4997731;28;23263;-49
2022/10/03 10:12:23;;;;;;;18.87;3.57;;;13.80;99.90;;;;;;5008547;28;20966;-49
2022/10/03 10:15:26;;;;;;;17.53;3.87;;;13.80;99.90;;;;;;4995919;28;20905;-49
2022/10/03 10:18:31;;;;;;;11.83;3.03;;;13.80;99.90;;;;;;5008915;28;20574;-50
2022/10/03 10:21:40;;;;;;;16.40;2.83;;;13.80;99.90;;;;;;5010806;28;20962;-50
2022/10/03 10:24:35;;;;;;;11.37;3.50;;;14.10;99.90;;;;;;4987064;28;20471;-48
2022/10/03 10:27:37;;;;;;;12.23;2.70;;;14.30;99.90;;;;;;5004771;28;20484;-48
2022/10/03 10:30:30;;;;;;;14.13;2.83;;;14.50;99.90;;;;;;5009426;28;21052;-48
2022/10/03 10:33:45;;;;;;;15.20;3.10;;;14.70;99.90;;;;;;5009045;28;20551;-48
2022/10/03 10:36:49;;;;;;;11.43;2.60;;;14.70;99.90;;;;;;5002122;28;20463;-48
2022/10/03 10:39:55;;;;;;;19.33;3.30;;;14.80;99.90;;;;;;5009326;28;21078;-49
2022/10/03 10:42:56;;;;;;;14.10;2.63;;;14.80;99.90;;;;;;5009284;28;21027;-49
2022/10/03 10:45:38;;;;;;;9.33;2.50;;;14.80;99.90;;;;;;5005005;28;20802;-48
2022/10/03 10:48:59;;;;;;;6.53;2.00;;;14.90;99.90;;;;;;5010498;28;20485;-47
2022/10/03 10:52:03;;;;;;;9.93;2.83;;;14.90;99.90;;;;;;4916657;29;20561;-48
2022/10/03 10:55:03;;;;;;;15.23;3.17;;;14.90;99.90;;;;;;4932494;29;20550;-47
2022/10/03 10:57:54;;;;;;;7.30;1.90;;;14.80;99.90;;;;;;5012726;28;20447;-48
2022/10/03 11:00:29;;;;;;;13.97;3.53;;;14.70;99.90;;;;;;5011186;28;20555;-47
2022/10/03 11:03:45;;;;;;;13.40;2.40;;;14.60;99.90;;;;;;5015199;28;20447;-48
2022/10/03 11:07:03;;;;;;;24.57;7.67;;;14.50;99.90;;;;;;5003913;28;20562;-48
2022/10/03 11:10:05;;;;;;;10.47;2.83;;;14.60;99.90;;;;;;5006519;28;20909;-48
2022/10/03 11:13:23;;;;;;;15.23;2.83;;;14.60;99.90;;;;;;5007390;28;21001;-48
2022/10/03 11:16:30;;;;;;;6.77;2.03;;;14.60;99.90;;;;;;5013927;28;20463;-48
2022/10/03 11:19:38;;;;;;;13.07;7.80;;;14.70;99.90;;;;;;5015107;28;20475;-47
2022/10/03 11:22:38;;;;;;;8.47;2.80;;;14.70;99.90;;;;;;5010442;28;20463;-47
2022/10/03 11:25:36;;;;;;;9.70;2.50;;;14.70;99.90;;;;;;5012243;28;20542;-48
2022/10/03 11:28:36;;;;;;;12.80;2.70;;;14.60;99.90;;;;;;5011484;28;20463;-48
2022/10/03 11:31:40;;;;;;;9.80;2.37;;;14.40;99.90;;;;;;5008815;28;20459;-48
2022/10/03 11:34:46;;;;;;;9.20;3.33;;;14.40;99.90;;;;;;5008642;28;20544;-48
2022/10/03 11:37:32;;;;;;;15.67;5.03;;;14.30;99.90;;;;;;5014574;28;20455;-48
2022/10/03 11:40:13;;;;;;;5.87;3.30;;;14.30;91.60;;;;;;5013394;28;20471;-48
2022/10/03 11:42:52;;;;;;;8.13;3.30;;;14.50;78.50;;;;;;5007853;28;20557;-48
2022/10/03 11:45:26;;;;;;;8.23;2.93;;;14.60;99.90;;;;;;5013361;28;20455;-48
2022/10/03 11:48:04;;;;;;;5.17;1.93;;;14.70;99.90;;;;;;5011224;28;20597;-48
2022/10/03 11:50:37;;;;;;;7.77;2.13;;;14.80;99.90;;;;;;5006810;28;20448;-48
2022/10/03 11:53:17;;;;;;;11.23;2.50;;;14.90;99.90;;;;;;5010559;28;20467;-48
2022/10/03 11:55:50;;;;;;;11.13;2.00;;;15.00;99.90;;;;;;5011961;28;20544;-47
2022/10/03 11:58:33;;;;;;;13.70;2.20;;;15.10;99.90;;;;;;5013396;28;20489;-48
2022/10/03 12:01:17;;;;;;;10.50;2.63;;;15.20;99.90;;;;;;5008576;28;20464;-48
2022/10/03 12:03:51;;;;;;;11.33;2.10;;;15.20;99.90;;;;;;5010655;28;20550;-48
2022/10/03 12:09:28;;;;;;;8.77;2.60;;;15.20;99.90;;;;;;5012777;28;20517;-48
2022/10/03 12:12:00;;;;;;;6.10;2.00;;;15.10;99.90;;;;;;5013688;28;20448;-47
2022/10/03 12:14:29;;;;;;;13.97;2.20;;;15.10;99.90;;;;;;5013786;28;20953;-48
2022/10/03 12:17:07;;;;;;;8.53;1.80;;;15.20;99.90;;;;;;5011741;28;20464;-48
2022/10/03 12:19:42;;;;;;;12.07;2.30;;;15.20;99.90;;;;;;5011679;28;21027;-48
2022/10/03 12:22:29;;;;;;;9.20;2.40;;;15.10;99.90;;;;;;5008066;28;20496;-48
2022/10/03 12:25:06;;;;;;;7.20;1.97;;;15.10;99.90;;;;;;5011353;28;20547;-49
2022/10/03 12:27:42;;;;;;;14.10;2.60;;;15.10;99.90;;;;;;5012535;28;20480;-49
2022/10/03 12:30:15;;;;;;;11.50;2.10;;;15.10;99.90;;;;;;5011859;28;20550;-49
2022/10/03 12:32:51;;;;;;;14.40;2.90;;;15.10;99.90;;;;;;5011358;28;20824;-49
2022/10/03 12:35:33;;;;;;;6.33;2.10;;;15.20;99.90;;;;;;5011438;28;20550;-49
2022/10/03 12:38:18;;;;;;;10.47;2.17;;;15.30;99.90;;;;;;5011888;28;20578;-49
2022/10/03 12:40:55;;;;;;;10.70;1.93;;;15.40;99.90;;;;;;5012946;28;20550;-50
2022/10/03 12:43:40;;;;;;;11.17;2.57;;;15.60;99.90;;;;;;5010384;28;20554;-51
2022/10/03 12:46:12;;;;;;;7.97;2.10;;;15.70;99.90;;;;;;5009698;28;20550;-49
2022/10/03 12:48:46;;;;;;;9.73;2.37;;;16.00;99.90;;;;;;5005474;28;20575;-49
2022/10/03 12:51:28;;;;;;;4.73;1.73;;;16.00;99.90;;;;;;5010605;28;20509;-50
2022/10/03 12:54:08;;;;;;;7.13;2.77;;;16.10;99.90;;;;;;5012480;28;20857;-50
2022/10/03 12:56:44;;;;;;;4.57;2.17;;;16.10;99.90;;;;;;5008886;28;21007;-49
2022/10/03 12:59:19;;;;;;;12.87;2.40;;;16.00;99.90;;;;;;5012626;28;20486;-49
2022/10/03 13:02:03;;;;;;;7.77;1.90;;;15.90;99.90;;;;;;5010576;28;20478;-50
2022/10/03 13:04:40;;;;;;;7.20;1.50;;;15.80;99.90;;;;;;5010887;28;20909;-50
2022/10/03 13:07:20;;;;;;;7.13;1.77;;;15.70;27.30;;;;;;5007069;28;20571;-49
2022/10/03 13:10:09;;;;;;;8.60;2.40;;;15.60;20.90;;;;;;5012710;28;20571;-50
2022/10/03 13:12:44;;;;;;;7.10;1.90;;;15.60;99.90;;;;;;5012416;28;20527;-49
2022/10/03 13:16:03;;;;;;;16.13;2.40;;;15.60;99.90;;;;;;5011292;28;20491;-50
2022/10/03 13:18:51;;;;;;;4.27;1.23;;;15.50;99.90;;;;;;5009461;28;21070;-49
2022/10/03 13:21:20;;;;;;;8.13;1.80;;;15.50;77.30;;;;;;5010381;28;20806;-50
2022/10/03 13:23:52;;;;;;;7.90;1.97;;;15.60;29.30;;;;;;5010146;28;20562;-49
2022/10/03 13:26:23;;;;;;;10.40;1.73;;;15.60;35.00;;;;;;5007732;28;20459;-49
2022/10/03 13:29:25;;;;;;;8.20;1.93;;;15.50;33.50;;;;;;5011817;28;20836;-49
2022/10/03 13:32:05;;;;;;;5.20;2.13;;;15.70;25.50;;;;;;5005966;28;20865;-49
2022/10/03 13:34:39;;;;;;;5.73;1.83;;;15.90;34.70;;;;;;5012708;28;20447;-49
2022/10/03 13:37:12;;;;;;;6.83;1.90;;;15.90;40.80;;;;;;5000228;28;20535;-49
2022/10/03 13:39:47;;;;;;;2.77;1.47;;;15.90;44.80;;;;;;5012517;28;20550;-49
2022/10/03 13:42:19;;;;;;;12.23;1.60;;;15.90;36.80;;;;;;5011429;28;20459;-50
2022/10/03 13:44:53;;;;;;;6.47;1.80;;;16.10;44.70;;;;;;5012026;28;21229;-49
2022/10/03 13:47:42;;;;;;;19.93;3.63;;;16.20;54.20;;;;;;5012412;28;20514;-48
2022/10/03 13:50:17;;;;;;;9.57;1.67;;;16.20;57.90;;;;;;5011371;28;20574;-49
2022/10/03 13:52:48;;;;;;;3.77;1.50;;;16.30;52.10;;;;;;5011340;28;20825;-50
2022/10/03 13:55:25;;;;;;;7.77;2.20;;;16.40;53.70;;;;;;5009298;28;20595;-49
2022/10/03 13:58:16;;;;;;;8.63;2.03;;;16.40;49.90;;;;;;5011200;28;20490;-49
2022/10/03 14:00:56;;;;;;;7.60;1.60;;;16.30;60.30;;;;;;4996419;28;20451;-49
2022/10/03 14:03:31;;;;;;;8.90;2.23;;;16.20;54.40;;;;;;5001237;28;20472;-49
2022/10/03 14:06:10;;;;;;;7.40;2.23;;;16.20;56.50;;;;;;5009960;28;20555;-50
2022/10/03 14:09:06;;;;;;;4.67;1.77;;;16.10;55.30;;;;;;5002744;28;20866;-49
2022/10/03 14:11:43;;;;;;;8.90;2.37;;;15.90;52.30;;;;;;4937896;28;20471;-50
2022/10/03 14:14:42;;;;;;;6.70;2.10;;;15.80;48.80;;;;;;5001635;28;20428;-49
2022/10/03 14:17:15;;;;;;;10.30;2.27;;;15.60;41.20;;;;;;5011683;28;20783;-49
2022/10/03 14:19:55;;;;;;;9.00;2.67;;;15.40;29.50;;;;;;5011551;28;20542;-50
2022/10/03 14:22:43;;;;;;;5.70;2.00;;;15.30;32.80;;;;;;5011798;28;20539;-49
2022/10/03 14:25:22;;;;;;;8.33;2.57;;;15.30;30.10;;;;;;5011181;28;20542;-49
2022/10/03 14:27:54;;;;;;;6.57;2.00;;;15.30;23.00;;;;;;5014934;28;20570;-49
2022/10/03 14:30:23;;;;;;;11.83;2.13;;;15.30;87.30;;;;;;5015451;28;20519;-49
2022/10/03 14:33:13;;;;;;;7.50;2.30;;;15.30;92.40;;;;;;5015108;28;20535;-49
2022/10/03 14:35:50;;;;;;;6.60;2.90;;;15.30;99.90;;;;;;5015899;28;20451;-49